Latest Coastal Weather Observations for Tasman Island

IDT60701

Issued at 6:42 pm EDT Monday 11 December 2017 (issued every 10 minutes, with the page automatically refreshed every 10 minutes)

About coastal observations | Map of coastal stations | Coastal observations for TAS | Marine services | Other Formats
Station Details ID: 094155 Name: TASMAN ISLAND Lat: -43.24 Lon: 148.00 Height: 240.0 m
Data from the previous 72 hours. | See also: Recent months at Tasman Island
Date/Time
EDT
Temp
°C
Wind Pressure Rain since
9am
mm
Weather Cloud Vis
km
Sea
Height
m
Swell
Dir  Spd
kts
Gust
kts
hPa Trend Height
m
Period
s
Dir
11/06:30pm 12.9 S 3 6 1017.4 - 0.0 - - - - - - -
11/06:00pm 12.9 S 2 8 1017.3 - 0.0 - - - - - - -
11/05:30pm 13.3 SW 5 9 1017.1 - 0.0 - - - - - - -
11/05:00pm 13.2 SSW 5 8 1017.2 - 0.0 - - - - - - -
11/04:30pm 13.7 SW 6 7 1017.1 - 0.0 - - - - - - -
11/04:00pm 14.2 SW 4 8 1017.0 - 0.0 - - - - - - -
11/03:30pm 15.2 SW 6 9 1017.0 - 0.0 - - - - - - -
11/03:00pm 14.2 WSW 4 7 1017.0 - 0.0 - - - - - - -
11/02:30pm 14.9 SW 5 7 1017.1 - 0.0 - - - - - - -
11/02:00pm 14.8 WSW 5 8 1017.2 - 0.0 - - - - - - -
11/01:30pm 14.6 SSW 6 9 1017.4 - 0.0 - - - - - - -
11/01:00pm 14.8 S 4 7 1017.5 - 0.0 - - - - - - -
11/12:30pm 14.6 SSW 4 7 1017.8 - 0.0 - - - - - - -
11/12:00pm 14.4 S 3 5 1017.8 - 0.0 - - - - - - -
11/11:30am 14.2 W 4 9 1017.7 - 0.0 - - - - - - -
11/11:00am 13.9 W 7 12 1017.6 - 0.0 - - - - - - -
11/10:30am 14.0 WSW 7 9 1017.5 - 0.0 - - - - - - -
11/10:00am 13.4 WSW 6 13 1017.5 - 0.0 - - - - - - -
11/09:30am 13.4 W 8 16 1017.5 - 0.0 - - - - - - -
11/09:00am 13.4 WSW 4 14 1017.4 - 0.0 - - - - - - -
11/08:30am 13.4 WNW 4 21 1016.9 - 0.0 - - - - - - -
11/08:00am 13.3 NW 4 13 1016.6 - 0.0 - - - - - - -
11/07:30am 13.4 W 7 21 1016.3 - 0.0 - - - - - - -
11/07:00am 13.5 W 6 20 1016.3 - 0.0 - - - - - - -
11/06:30am 13.4 W 8 22 1016.2 - 0.0 - - - - - - -
11/06:00am 13.1 W 10 20 1016.1 - 0.0 - - - - - - -
11/05:30am 12.9 W 7 20 1015.8 - 0.0 - - - - - - -
11/05:00am 12.7 W 9 22 1015.7 - 0.0 - - - - - - -
11/04:30am 12.8 WNW 6 15 1015.5 - 0.0 - - - - - - -
11/04:00am 12.9 WNW 6 17 1015.4 - 0.0 - - - - - - -
11/03:30am 13.1 WSW 6 18 1015.6 - 0.0 - - - - - - -
11/03:00am 13.2 WNW 4 12 1015.8 - 0.0 - - - - - - -
11/02:30am 13.3 WNW 3 11 1016.1 - 0.0 - - - - - - -
11/02:00am 13.3 W 8 14 1016.4 - 0.0 - - - - - - -
11/01:30am 13.6 W 5 9 1016.7 - 0.0 - - - - - - -
11/01:00am 14.0 W 4 11 1016.8 - 0.0 - - - - - - -
11/12:30am 14.3 WNW 5 14 1016.9 - 0.0 - - - - - - -
11/12:00am 14.3 W 7 12 1017.2 - 0.0 - - - - - - -
 
Date/Time
EDT
Temp
°C
Wind Pressure Rain since
9am
mm
Weather Cloud Vis
km
Sea
Height
m
Swell
Dir  Spd
kts
Gust
kts
hPa Trend Height
m
Period
s
Dir
10/11:30pm 14.3 W 6 13 1017.3 - 0.0 - - - - - - -
10/11:00pm 14.3 W 5 13 1017.3 - 0.0 - - - - - - -
10/10:30pm 15.1 WNW 4 13 1017.1 - 0.0 - - - - - - -
10/10:00pm 15.5 WNW 7 17 1017.1 - 0.0 - - - - - - -
10/09:30pm 15.0 WNW 6 23 1015.8 - 0.0 - - - - - - -
10/09:00pm 15.3 W 14 24 1016.3 - 0.0 - - - - - - -
10/08:30pm 15.1 W 12 20 1016.4 - 0.0 - - - - - - -
10/08:00pm 16.2 WSW 10 25 1016.4 - 0.0 - - - - - - -
10/07:30pm 15.9 S 8 16 1016.2 - 0.0 - - - - - - -
10/07:00pm 16.3 SSW 7 17 1015.7 - 0.0 - - - - - - -
10/06:30pm 16.4 SW 5 11 1015.4 - 0.0 - - - - - - -
10/06:00pm 16.8 SSE 5 11 1014.9 - 0.0 - - - - - - -
10/05:30pm 16.9 S 6 17 1014.8 - 0.0 - - - - - - -
10/05:00pm 16.6 E 7 15 1014.7 - 0.0 - - - - - - -
10/04:30pm 17.3 S 5 12 1014.8 - 0.0 - - - - - - -
10/04:00pm 17.4 SSW 9 19 1014.9 - 0.0 - - - - - - -
10/03:30pm 18.3 S 10 26 1014.5 - 0.0 - - - - - - -
10/03:00pm 18.6 WSW 7 26 1014.2 - 0.0 - - - - - - -
10/02:30pm 18.0 NW 9 30 1013.9 - 0.0 - - - - - - -
10/02:00pm 17.6 W 7 21 1014.3 - 0.0 - - - - - - -
10/01:30pm 17.9 SE 11 17 1014.4 - 0.0 - - - - - - -
10/01:00pm 17.9 ENE 8 20 1014.0 - 0.0 - - - - - - -
10/12:30pm 17.7 W 10 24 1014.9 - 0.0 - - - - - - -
10/12:00pm 17.2 W 12 22 1015.2 - 0.0 - - - - - - -
10/11:30am 17.8 WSW 14 22 1015.2 - 0.0 - - - - - - -
10/11:00am 18.7 WSW 9 15 1015.2 - 0.0 - - - - - - -
10/10:30am 18.1 WNW 9 17 1015.0 - 0.0 - - - - - - -
10/10:00am 17.1 W 7 14 1015.0 - 0.0 - - - - - - -
10/09:30am 16.5 W 8 20 1014.9 - 0.0 - - - - - - -
10/09:00am 15.9 W 7 18 1014.8 - 0.0 - - - - - - -
10/08:30am 16.1 WNW 10 21 1014.9 - 0.0 - - - - - - -
10/08:00am 15.4 WNW 10 19 1014.5 - 0.0 - - - - - - -
10/07:30am 15.2 WNW 12 20 1014.3 - 0.0 - - - - - - -
10/07:00am 14.8 WNW 8 19 1014.0 - 0.0 - - - - - - -
10/06:30am 14.4 NW 16 27 1013.6 - 0.0 - - - - - - -
10/06:05am 14.2 NW 15 26 1013.5 - 0.0 - - - - - - -
10/06:00am 14.2 NW 16 26 1013.5 - 0.0 - - - - - - -
10/05:52am 14.1 NW 15 26 1013.5 - 0.0 - - - - - - -
10/05:30am 14.0 W 7 19 1013.3 - 0.0 - - - - - - -
10/05:00am 13.7 WNW 10 24 1013.2 - 0.0 - - - - - - -
10/04:30am 13.7 WNW 14 23 1013.2 - 0.0 - - - - - - -
10/04:05am 13.6 WNW 15 25 1013.1 - 0.0 - - - - - - -
10/04:00am 13.6 WNW 15 24 1013.0 - 0.0 - - - - - - -
10/03:31am 13.6 WNW 15 26 1013.0 - 0.0 - - - - - - -
10/03:30am 13.6 WNW 14 26 1013.0 - 0.0 - - - - - - -
10/03:00am 13.4 NW 8 20 1012.8 - 0.0 - - - - - - -
10/02:30am 13.3 WNW 7 22 1013.1 - 0.0 - - - - - - -
10/02:00am 13.3 NW 16 29 1013.3 - 0.0 - - - - - - -
10/01:30am 13.4 NW 19 29 1013.5 - 0.0 - - - - - - -
10/01:29am 13.4 NW 18 28 1013.5 - 0.0 - - - - - - -
10/01:00am 13.4 WNW 16 24 1013.7 - 0.0 - - - - - - -
10/12:30am 13.5 WNW 18 29 1013.4 - 0.0 - - - - - - -
10/12:28am 13.5 WNW 16 29 1013.5 - 0.0 - - - - - - -
10/12:00am 13.7 WNW 15 22 1013.9 - 0.0 - - - - - - -
 
Date/Time
EDT
Temp
°C
Wind Pressure Rain since
9am
mm
Weather Cloud Vis
km
Sea
Height
m
Swell
Dir  Spd
kts
Gust
kts
hPa Trend Height
m
Period
s
Dir
09/11:30pm 13.9 NW 14 20 1014.0 - 0.0 - - - - - - -
09/11:00pm 13.9 W 6 18 1013.9 - 0.0 - - - - - - -
09/10:30pm 13.6 WNW 6 13 1014.1 - 0.0 - - - - - - -
09/10:00pm 13.9 WNW 7 15 1014.1 - 0.0 - - - - - - -
09/09:30pm 13.8 WNW 4 14 1013.9 - 0.0 - - - - - - -
09/09:00pm 14.1 WSW 7 21 1013.2 - 0.0 - - - - - - -
09/08:30pm 14.4 NW 9 22 1012.6 - 0.0 - - - - - - -
09/08:00pm 13.7 W 11 19 1012.7 - 0.0 - - - - - - -
09/07:30pm 13.4 WSW 10 17 1012.0 - 0.0 - - - - - - -
09/07:00pm 13.4 SW 9 23 1011.9 - 0.0 - - - - - - -
09/06:30pm 13.7 SW 10 22 1011.3 - 0.0 - - - - - - -
09/06:00pm 13.6 SW 10 26 1010.8 - 0.0 - - - - - - -
09/05:30pm 13.2 SW 20 35 1010.2 - 0.0 - - - - - - -
09/05:00pm 13.4 SW 18 34 1010.0 - 0.0 - - - - - - -
09/04:30pm 13.6 SW 16 30 1009.7 - 0.0 - - - - - - -
09/04:09pm 13.9 SW 15 29 1009.7 - 0.0 - - - - - - -
09/04:00pm 14.4 SW 12 27 1009.5 - 0.0 - - - - - - -
09/03:32pm 13.9 SW 15 31 1009.5 - 0.0 - - - - - - -
09/03:30pm 14.0 SW 14 31 1009.5 - 0.0 - - - - - - -
09/03:00pm 12.9 SW 19 38 1009.1 - 0.0 - - - - - - -
09/02:30pm 13.9 SSW 15 33 1008.7 - 0.0 - - - - - - -
09/02:13pm 14.3 SW 14 30 1008.5 - 0.0 - - - - - - -
09/02:00pm 15.1 WSW 10 21 1008.6 - 0.0 - - - - - - -
09/01:30pm 14.8 W 6 20 1008.4 - 0.0 - - - - - - -
09/01:00pm 14.2 WSW 9 22 1008.0 - 0.0 - - - - - - -
09/12:30pm 12.9 SW 10 29 1007.8 - 0.0 - - - - - - -
09/12:00pm 13.1 SW 8 24 1007.3 - 0.0 - - - - - - -
09/11:30am 12.4 SW 10 27 1007.0 - 0.0 - - - - - - -
09/11:00am 14.0 SW 7 14 1007.2 - 0.0 - - - - - - -
09/10:30am 14.6 WNW 5 15 1006.6 - 0.0 - - - - - - -
09/10:00am 14.9 WNW 8 21 1006.2 - 0.0 - - - - - - -
09/09:30am 14.6 NW 4 13 1005.8 - 0.0 - - - - - - -
09/09:00am 14.0 W 8 18 1005.4 - 1.6 - - - - - - -
09/08:30am 14.9 SW 9 32 1004.6 - 1.6 - - - - - - -
09/08:00am 14.9 WSW 9 29 1004.3 - 1.6 - - - - - - -
09/07:30am 14.9 W 9 26 1003.7 - 1.6 - - - - - - -
09/07:00am 14.4 WNW 11 21 1003.6 - 1.6 - - - - - - -
09/06:30am 14.4 WNW 16 24 1003.6 - 1.6 - - - - - - -
09/06:00am 14.2 WNW 21 32 1003.1 - 1.6 - - - - - - -
09/05:30am 14.3 NW 20 33 1002.7 - 1.6 - - - - - - -
09/05:06am 14.0 NW 20 31 1002.6 - 1.6 - - - - - - -
09/05:00am 13.8 NW 18 27 1002.6 - 1.6 - - - - - - -
09/04:30am 13.7 NW 19 28 1002.7 - 1.6 - - - - - - -
09/04:09am 13.8 NW 20 33 1002.9 - 1.6 - - - - - - -
09/04:00am 13.4 NW 19 28 1002.9 - 1.6 - - - - - - -
09/03:30am 13.4 NW 22 32 1003.1 - 1.6 - - - - - - -
09/03:00am 13.4 NW 27 39 1002.9 - 1.6 - - - - - - -
09/02:30am 12.7 NW 27 38 1002.7 - 1.6 - - - - - - -
09/02:00am 12.1 NW 28 40 1003.0 - 1.6 - - - - - - -
09/01:30am 12.0 NW 25 35 1004.3 - 1.6 - - - - - - -
09/01:00am 11.4 NNW 22 33 1005.0 - 1.6 - - - - - - -
09/12:30am 11.0 NNW 19 31 1005.7 - 1.6 - - - - - - -
09/12:00am 10.3 NW 16 27 1006.5 - 1.2 Rain - - - - - -
 
Date/Time
EDT
Temp
°C
Wind Pressure Rain since
9am
mm
Weather Cloud Vis
km
Sea
Height
m
Swell
Dir  Spd
kts
Gust
kts
hPa Trend Height
m
Period
s
Dir
08/11:30pm 11.2 NW 15 21 1007.0 - 0.4 - - - - - - -
08/11:00pm 12.1 NW 11 18 1007.6 - 0.2 - - - - - - -
08/10:30pm 11.9 WNW 10 14 1008.0 - 0.2 - - - - - - -
08/10:00pm 11.8 NW 9 15 1008.0 - 0.2 - - - - - - -
08/09:30pm 11.5 NNW 9 14 1008.2 - 0.2 - - - - - - -
08/09:00pm 11.7 N 12 18 1008.2 - 0.2 - - - - - - -
08/08:30pm 11.9 N 15 22 1008.4 - 0.2 - - - - - - -
08/08:00pm 11.9 N 14 20 1008.4 - 0.2 - - - - - - -
08/07:30pm 11.7 N 17 27 1008.6 - 0.2 - - - - - - -
08/07:00pm 11.4 N 17 22 1008.8 - 0.2 - - - - - - -

Other Formats:

Comma delimited format used in spreadsheet applications
http://www.bom.gov.au/fwo/IDT60701/IDT60701.95986.axf

JavaScript Object Notation format (JSON) in row-major order
http://www.bom.gov.au/fwo/IDT60701/IDT60701.95986.json